Time;durP1;ratioP1;P1;durP2;ratioP2;P2;SDS_P1;SDS_P2;PMS_P1;PMS_P2;Temp;Humidity;BMP_temperature;BMP_pressure;BME280_temperature;BME280_humidity;BME280_pressure;Samples;Min_cycle;Max_cycle;Signal;HPM_P1;HPM_P2
2023/01/07 00:01:53;;;;;;;6.63;3.83;;;;;;;9.88;100.00;101660.59;5223777;28;20115;-77
2023/01/07 00:04:24;;;;;;;5.95;3.60;;;;;;;9.89;100.00;101648.91;5214909;28;20024;-77
2023/01/07 00:06:54;;;;;;;8.23;3.72;;;;;;;9.99;100.00;101656.94;5226699;28;20500;-77
2023/01/07 00:09:24;;;;;;;7.72;4.18;;;;;;;10.03;100.00;101644.94;5215014;28;20026;-76
2023/01/07 00:11:55;;;;;;;6.78;3.47;;;;;;;10.00;100.00;101643.41;5205757;28;20108;-77
2023/01/07 00:14:25;;;;;;;8.48;3.90;;;;;;;10.02;100.00;101633.38;5214015;28;20033;-77
2023/01/07 00:16:56;;;;;;;11.68;5.20;;;;;;;10.01;100.00;101629.00;5211855;28;20028;-77
2023/01/07 00:19:26;;;;;;;13.45;4.70;;;;;;;10.00;100.00;101627.31;5214760;28;20106;-77
2023/01/07 00:21:57;;;;;;;15.32;4.85;;;;;;;9.96;100.00;101625.06;5218813;28;20391;-77
2023/01/07 00:24:27;;;;;;;14.85;4.47;;;;;;;9.90;100.00;101628.31;5205993;28;20272;-77
2023/01/07 00:26:58;;;;;;;19.48;5.80;;;;;;;9.89;100.00;101623.94;5225977;28;20151;-77
2023/01/07 00:29:28;;;;;;;9.88;4.72;;;;;;;9.83;100.00;101618.16;5211816;28;20033;-77
2023/01/07 00:31:59;;;;;;;10.93;4.43;;;;;;;9.81;100.00;101609.41;5213746;28;20100;-77
2023/01/07 00:34:30;;;;;;;12.35;4.07;;;;;;;9.77;100.00;101617.88;5215716;28;20485;-77
2023/01/07 00:39:50;;;;;;;11.50;4.75;;;;;;;9.76;100.00;101611.69;5225276;28;20413;-77
2023/01/07 00:45:10;;;;;;;10.25;4.03;;;;;;;9.67;100.00;101612.53;5216343;28;20018;-77
2023/01/07 00:47:40;;;;;;;10.85;4.38;;;;;;;9.64;100.00;101606.59;5205459;28;20091;-77
2023/01/07 00:50:11;;;;;;;8.68;3.92;;;;;;;9.66;100.00;101608.16;5216564;28;20100;-77
2023/01/07 00:52:41;;;;;;;9.32;4.20;;;;;;;9.67;100.00;101600.97;5207013;28;20112;-77
2023/01/07 00:55:13;;;;;;;7.60;3.75;;;;;;;9.70;100.00;101600.69;5218256;28;20103;-77
2023/01/07 00:57:44;;;;;;;10.02;4.93;;;;;;;9.73;100.00;101590.53;5212416;28;20662;-77
2023/01/07 01:00:17;;;;;;;9.65;4.25;;;;;;;9.71;100.00;101591.66;5224420;28;20092;-77
2023/01/07 01:02:48;;;;;;;7.28;4.20;;;;;;;9.75;100.00;101587.72;5213360;28;20249;-77
2023/01/07 01:05:19;;;;;;;9.52;4.55;;;;;;;9.77;100.00;101580.38;5223563;28;20025;-77
2023/01/07 01:07:50;;;;;;;12.52;4.45;;;;;;;9.77;100.00;101578.53;5205173;28;20102;-77
2023/01/07 01:10:21;;;;;;;9.32;4.07;;;;;;;9.72;100.00;101585.31;5204477;28;20547;-77
2023/01/07 01:12:51;;;;;;;6.45;3.95;;;;;;;9.72;100.00;101577.28;5215924;28;20124;-77
2023/01/07 01:15:22;;;;;;;7.60;3.90;;;;;;;9.69;100.00;101572.19;5216977;28;20017;-77
2023/01/07 01:17:53;;;;;;;9.57;3.72;;;;;;;9.67;100.00;101574.19;5225557;28;20021;-77
2023/01/07 01:20:23;;;;;;;9.07;3.83;;;;;;;9.64;100.00;101569.09;5219054;28;20083;-77
2023/01/07 01:22:54;;;;;;;9.52;3.78;;;;;;;9.65;100.00;101574.31;5218282;28;20028;-77
2023/01/07 01:25:24;;;;;;;12.77;4.47;;;;;;;9.66;100.00;101562.63;5211070;28;20660;-76
2023/01/07 01:27:55;;;;;;;10.30;4.20;;;;;;;9.71;100.00;101562.19;5212077;28;20419;-77
2023/01/07 01:30:25;;;;;;;11.45;3.95;;;;;;;9.79;100.00;101555.13;5216699;28;20033;-77
2023/01/07 01:32:56;;;;;;;12.50;4.22;;;;;;;9.76;100.00;101562.59;5218258;28;20029;-77
2023/01/07 01:35:26;;;;;;;8.70;4.35;;;;;;;9.67;100.00;101553.59;5223961;28;20060;-77
2023/01/07 01:37:59;;;;;;;11.85;4.97;;;;;;;9.70;100.00;101557.81;5207506;28;20435;-77
2023/01/07 01:40:29;;;;;;;9.85;4.43;;;;;;;9.70;100.00;101545.28;5223508;28;20534;-76
2023/01/07 01:43:00;;;;;;;12.98;4.35;;;;;;;9.68;100.00;101560.63;5226389;28;20017;-77
2023/01/07 01:45:31;;;;;;;9.27;5.00;;;;;;;9.68;100.00;101555.28;5224878;28;20083;-77
2023/01/07 01:48:05;;;;;;;10.15;4.30;;;;;;;9.67;100.00;101552.75;5204470;28;20025;-77
2023/01/07 01:50:43;;;;;;;7.80;4.05;;;;;;;9.73;100.00;101557.53;5217855;28;20025;-76
2023/01/07 01:53:18;;;;;;;10.50;4.10;;;;;;;9.75;100.00;101552.88;5214689;28;20099;-77
2023/01/07 01:55:54;;;;;;;8.02;3.58;;;;;;;9.75;100.00;101540.31;5207542;28;20074;-77
2023/01/07 01:58:35;;;;;;;10.50;4.25;;;;;;;9.76;100.00;101547.38;5215545;28;20062;-77
2023/01/07 02:01:06;;;;;;;6.57;4.28;;;;;;;9.78;100.00;101549.91;5225000;28;20029;-77
2023/01/07 02:03:37;;;;;;;8.13;4.53;;;;;;;9.79;100.00;101551.63;5225406;28;20129;-77
2023/01/07 02:06:17;;;;;;;6.70;3.78;;;;;;;9.80;100.00;101546.09;5215642;28;20465;-77
2023/01/07 02:08:59;;;;;;;10.73;4.20;;;;;;;9.85;100.00;101541.16;5224148;28;20029;-77
2023/01/07 02:11:48;;;;;;;7.90;4.13;;;;;;;9.88;100.00;101540.00;5224231;28;20021;-77
2023/01/07 02:14:37;;;;;;;10.25;4.40;;;;;;;10.00;100.00;101533.50;5224857;28;20029;-77
2023/01/07 02:17:15;;;;;;;9.52;3.75;;;;;;;10.07;100.00;101541.78;5214469;28;20627;-76
2023/01/07 02:19:57;;;;;;;10.00;3.78;;;;;;;10.15;100.00;101533.03;5223920;28;20028;-77
2023/01/07 02:22:51;;;;;;;7.30;3.80;;;;;;;10.17;100.00;101531.88;5214159;28;20105;-76
2023/01/07 02:25:34;;;;;;;6.05;3.40;;;;;;;10.14;100.00;101534.88;5204630;28;20032;-77
2023/01/07 02:28:07;;;;;;;5.47;3.55;;;;;;;10.13;100.00;101539.34;5221064;28;20037;-77
2023/01/07 02:30:59;;;;;;;6.05;2.95;;;;;;;10.12;100.00;101535.00;5213272;28;20029;-77
2023/01/07 02:34:11;;;;;;;7.55;3.35;;;;;;;10.11;100.00;101533.31;5209059;28;20033;-77
2023/01/07 02:37:18;;;;;;;8.85;3.50;;;;;;;10.10;100.00;101528.94;5216013;28;20111;-77
2023/01/07 02:40:11;;;;;;;8.30;3.17;;;;;;;10.14;100.00;101529.50;5217500;28;20036;-77
2023/01/07 02:43:05;;;;;;;8.30;3.47;;;;;;;10.08;100.00;101522.88;5215660;28;20029;-76
2023/01/07 02:45:46;;;;;;;6.47;3.22;;;;;;;10.08;100.00;101520.19;5208306;28;20033;-77
2023/01/07 02:48:25;;;;;;;7.25;3.05;;;;;;;10.09;100.00;101527.25;5218959;28;20392;-77
2023/01/07 02:50:55;;;;;;;6.15;3.30;;;;;;;10.07;100.00;101512.31;5214936;28;20029;-77
2023/01/07 02:53:26;;;;;;;7.18;3.30;;;;;;;10.06;100.00;101510.63;5228731;28;20098;-77
2023/01/07 02:56:15;;;;;;;11.07;3.35;;;;;;;10.08;100.00;101517.50;5222884;28;20028;-76
2023/01/07 02:58:54;;;;;;;8.23;3.67;;;;;;;10.11;100.00;101514.53;5220297;28;20025;-76
2023/01/07 03:01:34;;;;;;;7.90;3.42;;;;;;;10.08;100.00;101514.81;5218610;28;20032;-77
2023/01/07 03:04:12;;;;;;;6.38;2.80;;;;;;;10.10;100.00;101509.34;5221589;28;20096;-77
2023/01/07 03:06:43;;;;;;;9.38;3.55;;;;;;;10.09;100.00;101504.94;5222045;28;20060;-77
2023/01/07 03:09:29;;;;;;;6.28;3.10;;;;;;;10.06;100.00;101498.06;5220020;28;20049;-76
2023/01/07 03:12:04;;;;;;;8.18;3.28;;;;;;;10.06;100.00;101498.06;5223934;28;20028;-76
2023/01/07 03:14:49;;;;;;;6.38;3.35;;;;;;;10.07;100.00;101493.53;5218495;28;20017;-77
2023/01/07 03:17:27;;;;;;;11.23;3.28;;;;;;;10.07;100.00;101491.69;5218937;28;20040;-76
2023/01/07 03:20:00;;;;;;;7.13;3.22;;;;;;;10.10;100.00;101486.06;5223660;28;20055;-77
2023/01/07 03:22:35;;;;;;;8.00;3.15;;;;;;;10.10;100.00;101475.31;5216985;28;20108;-77
2023/01/07 03:25:08;;;;;;;8.70;3.30;;;;;;;10.10;100.00;101478.00;5206461;28;20115;-77
2023/01/07 03:27:41;;;;;;;4.72;3.13;;;;;;;10.15;100.00;101479.41;5220805;28;20036;-76
2023/01/07 03:30:15;;;;;;;4.30;2.83;;;;;;;10.10;100.00;101480.69;5228250;28;20384;-77
2023/01/07 03:32:59;;;;;;;7.57;3.47;;;;;;;10.11;100.00;101473.50;5226130;28;20079;-77
2023/01/07 03:35:33;;;;;;;5.47;3.10;;;;;;;10.09;100.00;101473.66;5218769;28;20087;-77
2023/01/07 03:38:04;;;;;;;5.18;2.63;;;;;;;10.07;100.00;101469.41;5209313;28;20486;-77
2023/01/07 03:40:35;;;;;;;5.07;2.55;;;;;;;10.05;100.00;101469.56;5226842;28;20036;-77
2023/01/07 03:43:17;;;;;;;8.68;2.85;;;;;;;10.08;100.00;101469.25;5208789;28;20025;-77
2023/01/07 03:45:50;;;;;;;6.10;3.10;;;;;;;10.06;100.00;101465.03;5221614;28;20119;-77
2023/01/07 03:48:21;;;;;;;7.70;2.83;;;;;;;10.05;100.00;101458.84;5217866;28;20555;-76
2023/01/07 03:50:51;;;;;;;6.13;3.15;;;;;;;10.07;100.00;101459.53;5219525;28;20025;-77
2023/01/07 03:53:21;;;;;;;6.18;2.97;;;;;;;10.07;100.00;101458.69;5216791;28;20128;-77
2023/01/07 03:55:52;;;;;;;7.22;3.30;;;;;;;10.07;100.00;101456.00;5213041;28;20040;-77
2023/01/07 03:58:22;;;;;;;5.95;2.90;;;;;;;10.04;100.00;101449.13;5227509;28;20021;-77
2023/01/07 04:00:54;;;;;;;10.70;3.00;;;;;;;10.00;100.00;101445.03;5220767;28;20072;-76
2023/01/07 04:03:24;;;;;;;8.65;2.83;;;;;;;9.93;100.00;101446.59;5220140;28;20017;-77
2023/01/07 04:05:55;;;;;;;11.68;3.17;;;;;;;9.89;100.00;101444.34;5227641;28;20543;-77
2023/01/07 04:08:25;;;;;;;7.38;2.90;;;;;;;9.86;100.00;101449.03;5227159;28;20021;-76
2023/01/07 04:10:56;;;;;;;9.05;2.90;;;;;;;9.83;100.00;101440.44;5225554;28;20020;-76
2023/01/07 04:13:26;;;;;;;8.40;2.90;;;;;;;9.76;100.00;101437.50;5223543;28;20029;-77
2023/01/07 04:15:56;;;;;;;11.05;3.03;;;;;;;9.69;100.00;101439.09;5219139;28;20104;-77
2023/01/07 04:18:27;;;;;;;10.82;3.17;;;;;;;9.66;100.00;101433.19;5208809;28;20029;-77
2023/01/07 04:20:58;;;;;;;6.70;3.13;;;;;;;9.50;100.00;101429.28;5217427;28;20648;-77
2023/01/07 04:23:28;;;;;;;9.05;3.25;;;;;;;9.52;100.00;101418.41;5213467;28;20027;-77
2023/01/07 04:25:59;;;;;;;5.30;2.58;;;;;;;9.50;100.00;101418.56;5227093;28;20378;-77
2023/01/07 04:28:29;;;;;;;13.68;3.00;;;;;;;9.47;100.00;101418.84;5218926;28;20071;-77
2023/01/07 04:31:00;;;;;;;9.60;3.00;;;;;;;9.41;100.00;101413.22;5205994;28;20452;-77
2023/01/07 04:33:30;;;;;;;5.43;2.75;;;;;;;9.35;100.00;101414.66;5211262;28;20549;-77
2023/01/07 04:36:01;;;;;;;5.65;2.72;;;;;;;9.34;100.00;101410.28;5211644;28;20049;-77
2023/01/07 04:38:31;;;;;;;9.00;2.75;;;;;;;9.34;100.00;101407.63;5214185;28;20619;-77
2023/01/07 04:41:02;;;;;;;4.22;2.10;;;;;;;9.37;100.00;101399.28;5225675;28;20109;-76
2023/01/07 04:43:34;;;;;;;4.50;2.60;;;;;;;9.41;100.00;101394.47;5226779;28;20017;-76
2023/01/07 04:46:05;;;;;;;3.75;1.95;;;;;;;9.43;100.00;101387.97;5220673;28;20124;-77
2023/01/07 04:48:35;;;;;;;3.80;2.00;;;;;;;9.44;100.00;101381.66;5218141;28;20047;-77
2023/01/07 04:51:06;;;;;;;4.93;1.75;;;;;;;9.48;100.00;101380.34;5224763;28;20099;-77
2023/01/07 04:53:36;;;;;;;5.28;1.83;;;;;;;9.51;100.00;101374.72;5226269;28;20033;-76
2023/01/07 04:56:07;;;;;;;7.78;2.15;;;;;;;9.54;100.00;101365.56;5205269;28;20036;-77
2023/01/07 04:58:38;;;;;;;7.88;1.60;;;;;;;9.53;100.00;101374.56;5204612;28;20106;-77
2023/01/07 05:01:09;;;;;;;5.50;1.92;;;;;;;9.51;100.00;101377.38;5213455;28;20106;-77
2023/01/07 05:03:40;;;;;;;4.93;1.55;;;;;;;9.51;100.00;101363.16;5224288;28;20021;-76
2023/01/07 05:06:11;;;;;;;4.25;1.58;;;;;;;9.55;100.00;101364.56;5205698;28;20021;-77
2023/01/07 05:08:41;;;;;;;4.22;1.67;;;;;;;9.56;100.00;101363.56;5222643;28;20031;-77
2023/01/07 05:11:12;;;;;;;5.22;1.85;;;;;;;9.52;100.00;101360.31;5225795;28;20025;-77
2023/01/07 05:13:43;;;;;;;5.05;1.88;;;;;;;9.60;100.00;101355.09;5226124;28;20491;-76
2023/01/07 05:16:13;;;;;;;4.03;1.70;;;;;;;9.62;100.00;101362.13;5215601;28;20025;-77
2023/01/07 05:18:44;;;;;;;3.50;1.63;;;;;;;9.63;100.00;101363.81;5223731;28;20037;-77
2023/01/07 05:21:14;;;;;;;5.07;1.70;;;;;;;9.63;100.00;101353.94;5212634;28;20045;-76
2023/01/07 05:23:45;;;;;;;2.65;1.70;;;;;;;9.57;100.00;101350.00;5213105;28;20021;-77
2023/01/07 05:26:16;;;;;;;6.15;1.60;;;;;;;9.54;100.00;101346.81;5209845;28;20029;-77
2023/01/07 05:28:46;;;;;;;4.97;1.60;;;;;;;9.50;100.00;101343.56;5205021;28;20032;-77
2023/01/07 05:31:17;;;;;;;3.13;1.52;;;;;;;9.53;100.00;101345.09;5204636;28;20028;-76
2023/01/07 05:33:47;;;;;;;4.55;1.88;;;;;;;9.55;100.00;101340.44;5211224;28;20021;-77
2023/01/07 05:36:18;;;;;;;2.72;1.42;;;;;;;9.56;100.00;101342.13;5221459;28;20025;-76
2023/01/07 05:38:48;;;;;;;3.10;1.55;;;;;;;9.52;100.00;101332.69;5225947;28;20021;-76
2023/01/07 05:41:18;;;;;;;7.50;1.75;;;;;;;9.51;100.00;101325.66;5228798;28;20025;-76
2023/01/07 05:43:49;;;;;;;7.13;1.63;;;;;;;9.53;100.00;101327.19;5217766;28;20055;-77
2023/01/07 05:46:20;;;;;;;5.13;2.13;;;;;;;9.51;100.00;101322.97;5212235;28;20100;-76
2023/01/07 05:48:52;;;;;;;5.88;1.42;;;;;;;9.53;100.00;101318.31;5211253;28;20100;-77
2023/01/07 05:51:23;;;;;;;2.40;1.05;;;;;;;9.57;100.00;101317.03;5212173;28;20087;-77
2023/01/07 05:53:54;;;;;;;5.45;1.50;;;;;;;9.56;100.00;101308.16;5210227;28;20022;-76
2023/01/07 05:56:24;;;;;;;2.15;1.23;;;;;;;9.51;100.00;101298.88;5214926;28;20053;-77
2023/01/07 05:58:55;;;;;;;4.85;1.98;;;;;;;9.45;100.00;101294.13;5204399;28;20021;-76
2023/01/07 06:01:25;;;;;;;3.05;1.48;;;;;;;9.50;100.00;101294.53;5214178;28;20017;-77
2023/01/07 06:03:56;;;;;;;5.47;1.48;;;;;;;9.46;100.00;101288.59;5211700;28;20036;-76
2023/01/07 06:06:27;;;;;;;2.80;1.40;;;;;;;9.41;100.00;101280.16;5213124;28;20034;-76
2023/01/07 06:08:57;;;;;;;3.78;1.10;;;;;;;9.40;100.00;101283.84;5216311;28;20029;-77
2023/01/07 06:11:27;;;;;;;4.35;1.80;;;;;;;9.43;100.00;101294.25;5204068;28;20017;-77
2023/01/07 06:13:58;;;;;;;5.57;1.40;;;;;;;9.43;100.00;101293.41;5204193;28;20039;-77
2023/01/07 06:16:28;;;;;;;5.55;1.60;;;;;;;9.45;100.00;101286.94;5205377;28;20072;-77
2023/01/07 06:18:59;;;;;;;7.53;1.42;;;;;;;9.42;100.00;101284.53;5211603;28;20125;-77
2023/01/07 06:21:29;;;;;;;5.95;1.80;;;;;;;9.47;100.00;101282.25;5222830;28;20036;-77
2023/01/07 06:24:00;;;;;;;3.95;1.40;;;;;;;9.44;100.00;101277.22;5212815;28;20017;-77
2023/01/07 06:26:30;;;;;;;5.07;1.70;;;;;;;9.49;100.00;101277.59;5224604;28;20436;-77
2023/01/07 06:29:01;;;;;;;3.58;1.50;;;;;;;9.51;100.00;101278.28;5213520;28;20043;-77
2023/01/07 06:31:31;;;;;;;3.25;1.38;;;;;;;9.50;100.00;101273.09;5216599;28;20033;-77
2023/01/07 06:34:02;;;;;;;5.18;2.10;;;;;;;9.51;100.00;101272.09;5203868;28;20444;-77
2023/01/07 06:36:32;;;;;;;3.13;1.30;;;;;;;9.55;100.00;101265.44;5209280;28;20025;-77
2023/01/07 06:39:03;;;;;;;2.08;1.10;;;;;;;9.59;100.00;101273.03;5223380;28;20378;-77
2023/01/07 06:41:34;;;;;;;3.55;1.45;;;;;;;9.58;100.00;101267.81;5235028;28;20035;-77
2023/01/07 06:44:05;;;;;;;1.73;1.10;;;;;;;9.57;100.00;101280.38;5218135;28;20017;-77
2023/01/07 06:46:35;;;;;;;4.20;1.20;;;;;;;9.58;100.00;101268.66;5209622;28;20032;-77
2023/01/07 06:49:06;;;;;;;2.42;1.40;;;;;;;9.58;100.00;101265.13;5219431;28;20131;-77
2023/01/07 06:51:36;;;;;;;4.10;1.77;;;;;;;9.60;100.00;101257.81;5212683;28;20023;-77
2023/01/07 06:54:07;;;;;;;3.30;1.35;;;;;;;9.60;100.00;101258.66;5201510;28;20079;-77
2023/01/07 06:56:38;;;;;;;1.80;0.90;;;;;;;9.62;100.00;101253.13;5214654;28;20112;-77
2023/01/07 06:59:09;;;;;;;2.17;1.00;;;;;;;9.67;100.00;101261.56;5204730;28;20099;-77
2023/01/07 07:01:40;;;;;;;2.45;1.20;;;;;;;9.69;100.00;101259.59;5201170;28;20026;-77
2023/01/07 07:04:11;;;;;;;3.60;1.52;;;;;;;9.73;100.00;101254.75;5202544;28;20075;-77
2023/01/07 07:06:41;;;;;;;5.82;1.33;;;;;;;9.75;100.00;101248.25;5201638;28;20029;-77
2023/01/07 07:09:12;;;;;;;1.30;1.00;;;;;;;9.78;100.00;101245.25;5203195;28;20402;-77
2023/01/07 07:11:43;;;;;;;1.83;1.08;;;;;;;9.76;100.00;101247.25;5218264;28;20028;-77
2023/01/07 07:14:14;;;;;;;1.27;1.17;;;;;;;9.84;100.00;101246.53;5222580;28;20107;-77
2023/01/07 07:16:44;;;;;;;1.48;0.80;;;;;;;9.85;100.00;101243.69;5212055;28;20477;-77
2023/01/07 07:19:15;;;;;;;2.95;1.30;;;;;;;9.89;100.00;101243.34;5216494;28;20078;-77
2023/01/07 07:21:46;;;;;;;1.58;1.23;;;;;;;9.88;100.00;101247.88;5221460;28;20033;-77
2023/01/07 07:24:17;;;;;;;3.00;1.20;;;;;;;9.85;100.00;101243.69;5219362;28;20032;-77
2023/01/07 07:26:48;;;;;;;2.92;1.40;;;;;;;9.90;100.00;101248.59;5227645;28;20484;-78
2023/01/07 07:29:19;;;;;;;3.03;1.10;;;;;;;9.91;100.00;101242.22;5214058;28;20044;-77
2023/01/07 07:31:49;;;;;;;3.38;1.33;;;;;;;9.92;100.00;101243.91;5213791;28;20021;-77
2023/01/07 07:34:20;;;;;;;3.72;1.58;;;;;;;9.89;100.00;101236.19;5225066;28;20100;-77
2023/01/07 07:36:51;;;;;;;2.78;1.17;;;;;;;9.88;100.00;101234.47;5219020;28;20060;-77
2023/01/07 07:39:21;;;;;;;3.72;1.60;;;;;;;9.88;100.00;101237.16;5220450;28;20214;-77
2023/01/07 07:41:56;;;;;;;3.22;1.40;;;;;;;9.91;100.00;101226.16;5205206;28;20490;-77
2023/01/07 07:44:26;;;;;;;4.53;1.13;;;;;;;9.91;100.00;101220.78;5221764;28;20033;-77
2023/01/07 07:46:57;;;;;;;2.55;1.10;;;;;;;9.98;100.00;101223.69;5216464;28;20091;-77
2023/01/07 07:49:27;;;;;;;2.38;1.00;;;;;;;9.98;100.00;101215.66;5212696;28;20036;-77
2023/01/07 07:51:58;;;;;;;3.08;1.02;;;;;;;9.94;100.00;101214.25;5213680;28;20033;-77
2023/01/07 07:54:28;;;;;;;3.13;1.25;;;;;;;9.95;100.00;101210.63;5212346;28;20025;-77
2023/01/07 07:56:59;;;;;;;3.33;0.90;;;;;;;9.93;100.00;101209.91;5213020;28;20029;-77
2023/01/07 07:59:29;;;;;;;3.53;1.20;;;;;;;9.90;100.00;101199.50;5220180;28;20026;-77
2023/01/07 08:02:00;;;;;;;2.58;1.33;;;;;;;9.86;100.00;101197.13;5206373;28;20112;-77
2023/01/07 08:04:33;;;;;;;4.68;1.17;;;;;;;9.86;100.00;101199.81;5214456;28;20020;-77
2023/01/07 08:07:03;;;;;;;2.17;1.10;;;;;;;9.92;100.00;101203.72;5213902;28;20047;-77
2023/01/07 08:09:34;;;;;;;1.30;0.90;;;;;;;9.90;100.00;101200.34;5226819;28;20021;-77
2023/01/07 08:12:05;;;;;;;5.68;1.27;;;;;;;9.88;100.00;101194.28;5222778;28;20025;-77
2023/01/07 08:14:36;;;;;;;4.30;1.27;;;;;;;9.87;100.00;101189.94;5217820;28;20028;-77
2023/01/07 08:17:06;;;;;;;2.05;1.15;;;;;;;9.80;100.00;101184.34;5225738;28;20507;-76
2023/01/07 08:19:36;;;;;;;1.40;1.00;;;;;;;9.78;100.00;101177.44;5226815;28;20067;-77
2023/01/07 08:22:07;;;;;;;2.72;1.08;;;;;;;9.79;100.00;101171.94;5206831;28;20026;-77
2023/01/07 08:24:37;;;;;;;1.90;1.20;;;;;;;9.75;100.00;101169.72;5205154;28;20022;-77
2023/01/07 08:27:08;;;;;;;2.25;1.42;;;;;;;9.80;100.00;101167.44;5213864;28;20031;-77
2023/01/07 08:29:38;;;;;;;1.77;1.05;;;;;;;9.80;100.00;101170.94;5212829;28;20421;-77
2023/01/07 08:32:09;;;;;;;1.65;1.10;;;;;;;9.85;100.00;101163.28;5226438;28;20077;-77
2023/01/07 08:34:39;;;;;;;1.58;0.90;;;;;;;9.86;100.00;101156.94;5215851;28;20044;-77
2023/01/07 08:37:10;;;;;;;3.88;1.10;;;;;;;9.85;100.00;101149.91;5226903;28;20021;-77
2023/01/07 08:39:41;;;;;;;2.65;1.38;;;;;;;9.86;100.00;101148.06;5209555;28;20436;-77
2023/01/07 08:42:11;;;;;;;3.03;1.50;;;;;;;9.85;100.00;101144.53;5214562;28;20036;-77
2023/01/07 08:44:42;;;;;;;4.38;1.15;;;;;;;9.85;100.00;101146.38;5206064;28;20033;-77
2023/01/07 08:47:13;;;;;;;1.88;1.00;;;;;;;9.80;100.00;101135.28;5206536;28;20025;-77
2023/01/07 08:49:44;;;;;;;3.15;1.58;;;;;;;9.81;100.00;101137.78;5218404;28;20021;-77
2023/01/07 08:52:14;;;;;;;1.90;1.23;;;;;;;9.81;100.00;101131.59;5204016;28;20117;-77
2023/01/07 08:54:45;;;;;;;2.35;1.42;;;;;;;9.79;100.00;101125.56;5205915;28;20112;-77
2023/01/07 08:57:16;;;;;;;3.58;1.55;;;;;;;9.88;100.00;101119.25;5206651;28;20032;-77
2023/01/07 08:59:47;;;;;;;2.00;1.30;;;;;;;9.96;100.00;101119.31;5216265;28;20504;-77
2023/01/07 09:02:18;;;;;;;3.33;1.10;;;;;;;10.04;100.00;101122.09;5222461;28;20060;-77
2023/01/07 09:04:49;;;;;;;5.07;1.20;;;;;;;10.17;100.00;101121.66;5226411;28;20084;-77
2023/01/07 09:07:19;;;;;;;2.03;1.20;;;;;;;10.32;100.00;101116.59;5225113;28;20497;-77
2023/01/07 09:09:50;;;;;;;1.00;0.85;;;;;;;10.50;100.00;101111.19;5213449;28;20033;-77
2023/01/07 09:12:20;;;;;;;2.72;1.10;;;;;;;10.72;100.00;101112.44;5224928;28;20082;-78
2023/01/07 09:14:51;;;;;;;2.17;1.38;;;;;;;10.78;100.00;101111.81;5212241;28;20029;-78
2023/01/07 09:17:22;;;;;;;4.50;1.75;;;;;;;10.89;100.00;101111.50;5206276;28;20389;-77
2023/01/07 09:19:52;;;;;;;5.95;1.20;;;;;;;10.81;100.00;101106.13;5205468;28;20029;-77
2023/01/07 09:22:23;;;;;;;1.83;1.17;;;;;;;11.01;100.00;101104.03;5213718;28;20233;-77
2023/01/07 09:24:53;;;;;;;2.00;1.10;;;;;;;11.06;100.00;101101.69;5211465;28;20553;-78
2023/01/07 09:27:25;;;;;;;2.13;1.40;;;;;;;11.12;100.00;101104.56;5216995;28;20030;-77
2023/01/07 09:29:57;;;;;;;5.65;1.88;;;;;;;11.10;100.00;101095.84;5222707;28;20064;-77
2023/01/07 09:32:27;;;;;;;2.47;1.33;;;;;;;10.85;100.00;101100.28;5224485;28;20055;-77
2023/01/07 09:34:58;;;;;;;3.20;1.13;;;;;;;10.92;100.00;101088.88;5207082;28;20074;-78
2023/01/07 09:37:28;;;;;;;4.65;1.20;;;;;;;10.92;100.00;101095.09;5206184;28;20037;-77
2023/01/07 09:40:02;;;;;;;1.42;1.10;;;;;;;11.07;100.00;101084.56;5225570;28;20025;-77
2023/01/07 09:42:51;;;;;;;1.40;1.00;;;;;;;10.91;100.00;101080.00;5224462;28;20025;-77
2023/01/07 09:45:53;;;;;;;2.85;1.35;;;;;;;11.06;100.00;101081.03;5225319;28;20052;-77
2023/01/07 09:48:43;;;;;;;2.35;1.10;;;;;;;11.10;100.00;101066.28;5222911;28;20090;-77
2023/01/07 09:51:22;;;;;;;1.83;1.17;;;;;;;11.24;100.00;101064.78;5211833;28;20033;-78
2023/01/07 09:53:56;;;;;;;5.35;1.10;;;;;;;11.28;100.00;101051.88;5211980;28;20567;-77
2023/01/07 09:56:32;;;;;;;6.38;1.27;;;;;;;11.22;100.00;101052.56;5215878;28;20112;-77
2023/01/07 09:59:04;;;;;;;3.58;1.30;;;;;;;11.20;100.00;101044.66;5222627;28;20381;-77
2023/01/07 10:01:53;;;;;;;3.33;1.13;;;;;;;11.25;100.00;101044.19;5211952;28;20021;-77
2023/01/07 10:04:29;;;;;;;2.40;1.08;;;;;;;11.27;100.00;101044.84;5211078;28;20021;-77
2023/01/07 10:07:18;;;;;;;2.83;1.20;;;;;;;11.10;100.00;101031.38;5220726;28;20702;-77
2023/01/07 10:10:01;;;;;;;4.40;1.00;;;;;;;10.86;100.00;101020.59;5203347;28;20425;-77
2023/01/07 10:12:39;;;;;;;1.60;0.82;;;;;;;10.94;100.00;101030.50;5212722;28;20039;-77
2023/01/07 10:15:31;;;;;;;4.35;1.40;;;;;;;11.04;100.00;101021.28;5223463;28;20455;-77
2023/01/07 10:18:38;;;;;;;2.55;1.00;;;;;;;11.20;100.00;101023.19;5203551;28;20509;-77
2023/01/07 10:21:21;;;;;;;1.65;0.80;;;;;;;11.22;100.00;101021.16;5223742;28;20437;-77
2023/01/07 10:24:01;;;;;;;2.65;1.10;;;;;;;11.14;100.00;101026.50;5212566;28;20028;-77
2023/01/07 10:26:40;;;;;;;1.30;0.80;;;;;;;11.13;100.00;101024.84;5211622;28;20481;-77
2023/01/07 10:29:14;;;;;;;3.47;1.00;;;;;;;11.13;100.00;101016.78;5213005;28;20436;-77
2023/01/07 10:31:46;;;;;;;3.92;1.17;;;;;;;11.14;100.00;101013.94;5223279;28;20021;-77
2023/01/07 10:34:24;;;;;;;1.70;1.02;;;;;;;11.12;100.00;101007.06;5222886;28;20112;-77
2023/01/07 10:37:05;;;;;;;3.65;1.58;;;;;;;11.35;100.00;101007.25;5215505;28;20525;-77
2023/01/07 10:39:51;;;;;;;1.30;1.08;;;;;;;11.38;100.00;100988.94;5224040;28;20111;-77
2023/01/07 10:42:35;;;;;;;2.30;1.10;;;;;;;11.27;100.00;100991.13;5230627;28;20408;-77
2023/01/07 10:45:23;;;;;;;1.42;1.08;;;;;;;11.26;100.00;100986.75;5204309;28;20101;-77
2023/01/07 10:48:06;;;;;;;1.98;1.13;;;;;;;11.31;100.00;100976.34;5217540;28;20112;-77
2023/01/07 10:51:01;;;;;;;2.30;1.08;;;;;;;11.41;100.00;100980.56;5218390;28;20039;-77
2023/01/07 10:53:58;;;;;;;2.50;1.43;;;;;;;11.26;100.00;100963.44;5212377;28;20405;-77
2023/01/07 10:56:45;;;;;;;1.48;1.08;;;;;;;11.24;100.00;100959.22;5207956;28;20025;-77
2023/01/07 10:59:21;;;;;;;2.88;1.30;;;;;;;11.31;100.00;100944.97;5213783;28;20041;-77
2023/01/07 11:01:55;;;;;;;6.32;1.33;;;;;;;11.18;100.00;100933.88;5227667;28;20084;-77
2023/01/07 11:04:26;;;;;;;3.40;1.23;;;;;;;11.25;100.00;100940.28;5219827;28;20033;-77
2023/01/07 11:07:05;;;;;;;2.65;1.30;;;;;;;11.43;100.00;100929.31;5220873;28;20021;-77
2023/01/07 11:09:42;;;;;;;2.08;1.02;;;;;;;11.28;100.00;100925.66;5218602;28;20055;-77
2023/01/07 11:12:15;;;;;;;2.45;1.33;;;;;;;11.45;100.00;100918.44;5214480;28;20036;-77
2023/01/07 11:14:48;;;;;;;1.95;1.42;;;;;;;11.64;100.00;100916.19;5226469;28;20025;-77
2023/01/07 11:17:34;;;;;;;1.63;1.15;;;;;;;11.74;100.00;100901.72;5218183;28;20028;-76
2023/01/07 11:20:06;;;;;;;1.70;1.10;;;;;;;11.63;100.00;100889.50;5220608;28;20021;-77
2023/01/07 11:22:37;;;;;;;1.83;1.30;;;;;;;11.60;100.00;100888.00;5207486;28;20551;-76
2023/01/07 11:25:27;;;;;;;2.00;1.20;;;;;;;11.58;100.00;100886.50;5226002;28;20100;-77
2023/01/07 11:28:00;;;;;;;2.72;1.13;;;;;;;11.54;100.00;100877.09;5227003;28;20408;-77
2023/01/07 11:30:32;;;;;;;2.83;1.67;;;;;;;11.61;100.00;100876.25;5217590;28;20026;-77
2023/01/07 11:33:05;;;;;;;3.92;1.63;;;;;;;11.89;100.00;100875.84;5206016;28;20108;-77
2023/01/07 11:35:36;;;;;;;2.65;1.20;;;;;;;11.76;100.00;100868.31;5217723;28;20025;-77
2023/01/07 11:38:27;;;;;;;2.13;1.17;;;;;;;11.77;100.00;100871.81;5209707;28;20089;-77
2023/01/07 11:41:00;;;;;;;3.38;1.40;;;;;;;11.70;100.00;100869.00;5230296;28;20032;-77
2023/01/07 11:43:38;;;;;;;1.95;1.20;;;;;;;11.87;100.00;100864.44;5225934;28;20107;-77
2023/01/07 11:46:13;;;;;;;1.67;1.08;;;;;;;11.74;100.00;100872.16;5226617;28;20029;-77
2023/01/07 11:48:52;;;;;;;1.70;1.10;;;;;;;11.82;100.00;100854.19;5214149;28;20470;-77
2023/01/07 11:51:23;;;;;;;3.67;1.50;;;;;;;11.88;100.00;100853.50;5206794;28;20033;-77
2023/01/07 11:53:58;;;;;;;3.42;1.40;;;;;;;11.77;100.00;100861.06;5209803;28;20014;-77
2023/01/07 11:56:31;;;;;;;3.28;1.50;;;;;;;11.66;100.00;100843.47;5227035;28;20121;-77
2023/01/07 11:59:22;;;;;;;2.72;1.70;;;;;;;11.78;100.00;100849.31;5214188;28;20025;-78